sensor_id;sensor_type;location;lat;lon;timestamp;P1;durP1;ratioP1;P2;durP2;ratioP2
74677;SDS011;67324;56.326;43.982;2023-04-25T00:02:04;5.60;;;3.10;;
74677;SDS011;67324;56.326;43.982;2023-04-25T00:04:30;5.13;;;3.10;;
74677;SDS011;67324;56.326;43.982;2023-04-25T00:06:58;4.85;;;3.10;;
74677;SDS011;67324;56.326;43.982;2023-04-25T00:09:27;4.93;;;3.17;;
74677;SDS011;67324;56.326;43.982;2023-04-25T00:11:53;5.57;;;3.20;;
74677;SDS011;67324;56.326;43.982;2023-04-25T00:14:19;5.15;;;3.60;;
74677;SDS011;67324;56.326;43.982;2023-04-25T00:16:44;4.45;;;2.97;;
74677;SDS011;67324;56.326;43.982;2023-04-25T00:19:10;4.28;;;2.88;;
74677;SDS011;67324;56.326;43.982;2023-04-25T00:21:36;5.63;;;3.05;;
74677;SDS011;67324;56.326;43.982;2023-04-25T00:24:11;3.50;;;2.88;;
74677;SDS011;67324;56.326;43.982;2023-04-25T00:26:56;5.47;;;3.33;;
74677;SDS011;67324;56.326;43.982;2023-04-25T00:29:22;5.93;;;3.58;;
74677;SDS011;67324;56.326;43.982;2023-04-25T00:31:48;4.82;;;3.08;;
74677;SDS011;67324;56.326;43.982;2023-04-25T00:34:14;5.18;;;3.28;;
74677;SDS011;67324;56.326;43.982;2023-04-25T00:36:40;5.28;;;2.60;;
74677;SDS011;67324;56.326;43.982;2023-04-25T00:39:06;4.18;;;3.05;;
74677;SDS011;67324;56.326;43.982;2023-04-25T00:41:31;4.25;;;3.10;;
74677;SDS011;67324;56.326;43.982;2023-04-25T00:43:59;3.85;;;2.70;;
74677;SDS011;67324;56.326;43.982;2023-04-25T00:46:26;6.35;;;3.60;;
74677;SDS011;67324;56.326;43.982;2023-04-25T00:48:52;4.25;;;2.92;;
74677;SDS011;67324;56.326;43.982;2023-04-25T00:51:19;6.10;;;2.88;;
74677;SDS011;67324;56.326;43.982;2023-04-25T00:53:47;5.38;;;3.10;;
74677;SDS011;67324;56.326;43.982;2023-04-25T00:56:15;8.25;;;3.40;;
74677;SDS011;67324;56.326;43.982;2023-04-25T00:58:41;5.97;;;2.78;;
74677;SDS011;67324;56.326;43.982;2023-04-25T01:01:08;9.05;;;2.83;;
74677;SDS011;67324;56.326;43.982;2023-04-25T01:03:34;3.65;;;2.80;;
74677;SDS011;67324;56.326;43.982;2023-04-25T01:06:09;5.38;;;2.92;;
74677;SDS011;67324;56.326;43.982;2023-04-25T01:08:37;4.53;;;2.90;;
74677;SDS011;67324;56.326;43.982;2023-04-25T01:11:04;4.53;;;2.80;;
74677;SDS011;67324;56.326;43.982;2023-04-25T01:13:30;3.67;;;3.03;;
74677;SDS011;67324;56.326;43.982;2023-04-25T01:15:58;4.90;;;3.00;;
74677;SDS011;67324;56.326;43.982;2023-04-25T01:18:24;5.57;;;3.00;;
74677;SDS011;67324;56.326;43.982;2023-04-25T01:21:09;4.93;;;3.10;;
74677;SDS011;67324;56.326;43.982;2023-04-25T01:23:37;3.80;;;2.67;;
74677;SDS011;67324;56.326;43.982;2023-04-25T01:26:04;4.35;;;2.95;;
74677;SDS011;67324;56.326;43.982;2023-04-25T01:28:32;4.10;;;2.83;;
74677;SDS011;67324;56.326;43.982;2023-04-25T01:30:59;4.78;;;2.90;;
74677;SDS011;67324;56.326;43.982;2023-04-25T01:33:25;6.95;;;2.80;;
74677;SDS011;67324;56.326;43.982;2023-04-25T01:35:51;5.90;;;2.95;;
74677;SDS011;67324;56.326;43.982;2023-04-25T01:41:02;6.43;;;3.10;;
74677;SDS011;67324;56.326;43.982;2023-04-25T01:46:12;5.88;;;2.83;;
74677;SDS011;67324;56.326;43.982;2023-04-25T01:48:38;5.28;;;2.65;;
74677;SDS011;67324;56.326;43.982;2023-04-25T01:51:05;6.57;;;2.58;;
74677;SDS011;67324;56.326;43.982;2023-04-25T01:53:31;4.82;;;3.20;;
74677;SDS011;67324;56.326;43.982;2023-04-25T01:55:59;4.18;;;2.60;;
74677;SDS011;67324;56.326;43.982;2023-04-25T01:58:43;7.20;;;2.95;;
74677;SDS011;67324;56.326;43.982;2023-04-25T02:01:24;4.13;;;2.70;;
74677;SDS011;67324;56.326;43.982;2023-04-25T02:04:09;6.05;;;2.92;;
74677;SDS011;67324;56.326;43.982;2023-04-25T02:06:37;4.68;;;2.92;;
74677;SDS011;67324;56.326;43.982;2023-04-25T02:09:22;4.20;;;2.60;;
74677;SDS011;67324;56.326;43.982;2023-04-25T02:11:53;5.72;;;3.38;;
74677;SDS011;67324;56.326;43.982;2023-04-25T02:14:39;3.72;;;2.67;;
74677;SDS011;67324;56.326;43.982;2023-04-25T02:17:15;4.68;;;2.80;;
74677;SDS011;67324;56.326;43.982;2023-04-25T02:19:41;4.50;;;2.83;;
74677;SDS011;67324;56.326;43.982;2023-04-25T02:22:07;5.05;;;2.50;;
74677;SDS011;67324;56.326;43.982;2023-04-25T02:24:33;4.55;;;2.60;;
74677;SDS011;67324;56.326;43.982;2023-04-25T02:27:00;3.45;;;2.65;;
74677;SDS011;67324;56.326;43.982;2023-04-25T02:29:27;4.00;;;2.72;;
74677;SDS011;67324;56.326;43.982;2023-04-25T02:32:12;4.38;;;2.83;;
74677;SDS011;67324;56.326;43.982;2023-04-25T02:34:37;4.57;;;2.78;;
74677;SDS011;67324;56.326;43.982;2023-04-25T02:37:03;5.53;;;2.75;;
74677;SDS011;67324;56.326;43.982;2023-04-25T02:39:29;4.50;;;2.60;;
74677;SDS011;67324;56.326;43.982;2023-04-25T02:41:55;5.07;;;2.67;;
74677;SDS011;67324;56.326;43.982;2023-04-25T02:44:20;4.70;;;2.70;;
74677;SDS011;67324;56.326;43.982;2023-04-25T02:47:05;3.20;;;2.55;;
74677;SDS011;67324;56.326;43.982;2023-04-25T02:49:31;3.65;;;2.70;;
74677;SDS011;67324;56.326;43.982;2023-04-25T02:51:57;2.63;;;2.30;;
74677;SDS011;67324;56.326;43.982;2023-04-25T02:54:23;4.47;;;2.97;;
74677;SDS011;67324;56.326;43.982;2023-04-25T02:56:48;3.83;;;2.63;;
74677;SDS011;67324;56.326;43.982;2023-04-25T02:59:21;3.60;;;2.60;;
74677;SDS011;67324;56.326;43.982;2023-04-25T03:01:47;3.92;;;2.53;;
74677;SDS011;67324;56.326;43.982;2023-04-25T03:04:13;3.08;;;2.40;;
74677;SDS011;67324;56.326;43.982;2023-04-25T03:06:38;4.28;;;2.67;;
74677;SDS011;67324;56.326;43.982;2023-04-25T03:09:04;3.13;;;2.65;;
74677;SDS011;67324;56.326;43.982;2023-04-25T03:11:31;4.13;;;2.50;;
74677;SDS011;67324;56.326;43.982;2023-04-25T03:13:57;3.95;;;2.53;;
74677;SDS011;67324;56.326;43.982;2023-04-25T03:16:23;2.80;;;2.53;;
74677;SDS011;67324;56.326;43.982;2023-04-25T03:18:49;2.97;;;2.33;;
74677;SDS011;67324;56.326;43.982;2023-04-25T03:21:16;3.30;;;2.50;;
74677;SDS011;67324;56.326;43.982;2023-04-25T03:24:02;3.63;;;2.60;;
74677;SDS011;67324;56.326;43.982;2023-04-25T03:26:29;3.13;;;2.67;;
74677;SDS011;67324;56.326;43.982;2023-04-25T03:28:55;3.85;;;2.70;;
74677;SDS011;67324;56.326;43.982;2023-04-25T03:31:21;4.03;;;2.70;;
74677;SDS011;67324;56.326;43.982;2023-04-25T03:33:48;3.33;;;2.60;;
74677;SDS011;67324;56.326;43.982;2023-04-25T03:36:13;4.15;;;2.55;;
74677;SDS011;67324;56.326;43.982;2023-04-25T03:38:39;3.63;;;2.55;;
74677;SDS011;67324;56.326;43.982;2023-04-25T03:41:07;4.05;;;2.45;;
74677;SDS011;67324;56.326;43.982;2023-04-25T03:43:40;3.47;;;2.45;;
74677;SDS011;67324;56.326;43.982;2023-04-25T03:46:10;3.72;;;2.65;;
74677;SDS011;67324;56.326;43.982;2023-04-25T03:48:36;3.47;;;2.20;;
74677;SDS011;67324;56.326;43.982;2023-04-25T03:51:02;3.53;;;2.28;;
74677;SDS011;67324;56.326;43.982;2023-04-25T03:53:30;3.65;;;2.45;;
74677;SDS011;67324;56.326;43.982;2023-04-25T03:56:18;4.13;;;2.45;;
74677;SDS011;67324;56.326;43.982;2023-04-25T03:58:49;3.15;;;2.30;;
74677;SDS011;67324;56.326;43.982;2023-04-25T04:01:17;3.10;;;2.20;;
74677;SDS011;67324;56.326;43.982;2023-04-25T04:03:43;2.92;;;2.30;;
74677;SDS011;67324;56.326;43.982;2023-04-25T04:06:10;3.25;;;2.40;;
74677;SDS011;67324;56.326;43.982;2023-04-25T04:08:39;3.33;;;2.33;;
74677;SDS011;67324;56.326;43.982;2023-04-25T04:11:05;2.90;;;2.50;;
74677;SDS011;67324;56.326;43.982;2023-04-25T04:13:31;3.97;;;2.25;;
74677;SDS011;67324;56.326;43.982;2023-04-25T04:15:57;3.78;;;2.47;;
74677;SDS011;67324;56.326;43.982;2023-04-25T04:18:23;4.07;;;2.30;;
74677;SDS011;67324;56.326;43.982;2023-04-25T04:20:49;3.05;;;2.30;;
74677;SDS011;67324;56.326;43.982;2023-04-25T04:23:16;3.65;;;2.42;;
74677;SDS011;67324;56.326;43.982;2023-04-25T04:25:42;3.88;;;2.65;;
74677;SDS011;67324;56.326;43.982;2023-04-25T04:28:28;2.25;;;2.05;;
74677;SDS011;67324;56.326;43.982;2023-04-25T04:31:07;2.80;;;2.47;;
74677;SDS011;67324;56.326;43.982;2023-04-25T04:33:34;3.85;;;2.53;;
74677;SDS011;67324;56.326;43.982;2023-04-25T04:36:03;2.60;;;2.30;;
74677;SDS011;67324;56.326;43.982;2023-04-25T04:38:29;2.42;;;2.22;;
74677;SDS011;67324;56.326;43.982;2023-04-25T04:40:59;3.38;;;2.20;;
74677;SDS011;67324;56.326;43.982;2023-04-25T04:43:47;2.42;;;2.22;;
74677;SDS011;67324;56.326;43.982;2023-04-25T04:46:36;3.55;;;2.30;;
74677;SDS011;67324;56.326;43.982;2023-04-25T04:49:26;2.70;;;2.38;;
74677;SDS011;67324;56.326;43.982;2023-04-25T04:52:14;2.65;;;2.28;;
74677;SDS011;67324;56.326;43.982;2023-04-25T04:54:59;2.83;;;2.03;;
74677;SDS011;67324;56.326;43.982;2023-04-25T04:57:50;2.63;;;2.17;;
74677;SDS011;67324;56.326;43.982;2023-04-25T05:00:36;3.38;;;2.60;;
74677;SDS011;67324;56.326;43.982;2023-04-25T05:03:34;3.55;;;2.38;;
74677;SDS011;67324;56.326;43.982;2023-04-25T05:06:21;2.78;;;2.13;;
74677;SDS011;67324;56.326;43.982;2023-04-25T05:09:07;3.55;;;2.35;;
74677;SDS011;67324;56.326;43.982;2023-04-25T05:11:48;2.70;;;2.35;;
74677;SDS011;67324;56.326;43.982;2023-04-25T05:14:26;2.70;;;2.40;;
74677;SDS011;67324;56.326;43.982;2023-04-25T05:17:22;3.20;;;2.22;;
74677;SDS011;67324;56.326;43.982;2023-04-25T05:20:06;4.78;;;2.20;;
74677;SDS011;67324;56.326;43.982;2023-04-25T05:22:53;2.72;;;2.10;;
74677;SDS011;67324;56.326;43.982;2023-04-25T05:25:32;2.95;;;2.65;;
74677;SDS011;67324;56.326;43.982;2023-04-25T05:28:24;3.13;;;2.58;;
74677;SDS011;67324;56.326;43.982;2023-04-25T05:30:58;2.58;;;2.20;;
74677;SDS011;67324;56.326;43.982;2023-04-25T05:33:30;2.45;;;2.00;;
74677;SDS011;67324;56.326;43.982;2023-04-25T05:35:56;2.55;;;2.35;;
74677;SDS011;67324;56.326;43.982;2023-04-25T05:38:23;3.60;;;2.35;;
74677;SDS011;67324;56.326;43.982;2023-04-25T05:43:59;3.08;;;2.25;;
74677;SDS011;67324;56.326;43.982;2023-04-25T05:49:41;2.63;;;2.05;;
74677;SDS011;67324;56.326;43.982;2023-04-25T05:52:31;2.35;;;2.15;;
74677;SDS011;67324;56.326;43.982;2023-04-25T05:55:09;2.53;;;1.90;;
74677;SDS011;67324;56.326;43.982;2023-04-25T05:57:36;2.60;;;2.30;;
74677;SDS011;67324;56.326;43.982;2023-04-25T06:00:02;2.75;;;2.10;;
74677;SDS011;67324;56.326;43.982;2023-04-25T06:02:49;3.25;;;2.10;;
74677;SDS011;67324;56.326;43.982;2023-04-25T06:05:16;3.45;;;2.33;;
74677;SDS011;67324;56.326;43.982;2023-04-25T06:07:44;3.08;;;2.40;;
74677;SDS011;67324;56.326;43.982;2023-04-25T06:10:10;2.35;;;2.15;;
74677;SDS011;67324;56.326;43.982;2023-04-25T06:12:36;2.60;;;2.05;;
74677;SDS011;67324;56.326;43.982;2023-04-25T06:15:22;2.97;;;2.20;;
74677;SDS011;67324;56.326;43.982;2023-04-25T06:17:48;2.92;;;2.38;;
74677;SDS011;67324;56.326;43.982;2023-04-25T06:20:14;2.78;;;2.30;;
74677;SDS011;67324;56.326;43.982;2023-04-25T06:22:40;3.33;;;2.17;;
74677;SDS011;67324;56.326;43.982;2023-04-25T06:25:06;3.03;;;1.98;;
74677;SDS011;67324;56.326;43.982;2023-04-25T06:27:33;2.15;;;1.80;;
74677;SDS011;67324;56.326;43.982;2023-04-25T06:30:01;3.65;;;2.60;;
74677;SDS011;67324;56.326;43.982;2023-04-25T06:32:30;2.97;;;2.10;;
74677;SDS011;67324;56.326;43.982;2023-04-25T06:34:58;2.30;;;2.10;;
74677;SDS011;67324;56.326;43.982;2023-04-25T06:37:24;2.95;;;2.00;;
74677;SDS011;67324;56.326;43.982;2023-04-25T06:39:51;2.13;;;1.92;;
74677;SDS011;67324;56.326;43.982;2023-04-25T06:42:16;2.30;;;2.10;;
74677;SDS011;67324;56.326;43.982;2023-04-25T06:44:51;2.45;;;2.10;;
74677;SDS011;67324;56.326;43.982;2023-04-25T06:47:18;3.30;;;2.33;;
74677;SDS011;67324;56.326;43.982;2023-04-25T06:49:44;2.50;;;2.30;;
74677;SDS011;67324;56.326;43.982;2023-04-25T06:52:10;2.63;;;1.98;;
74677;SDS011;67324;56.326;43.982;2023-04-25T06:54:37;3.22;;;2.20;;
74677;SDS011;67324;56.326;43.982;2023-04-25T06:57:15;2.55;;;1.95;;
74677;SDS011;67324;56.326;43.982;2023-04-25T06:59:41;3.35;;;2.20;;
74677;SDS011;67324;56.326;43.982;2023-04-25T07:02:07;2.58;;;2.00;;
74677;SDS011;67324;56.326;43.982;2023-04-25T07:04:51;8.05;;;2.47;;
74677;SDS011;67324;56.326;43.982;2023-04-25T07:07:17;5.30;;;2.83;;
74677;SDS011;67324;56.326;43.982;2023-04-25T07:09:48;8.40;;;2.72;;
74677;SDS011;67324;56.326;43.982;2023-04-25T07:12:14;7.30;;;3.03;;
74677;SDS011;67324;56.326;43.982;2023-04-25T07:14:40;8.18;;;2.95;;
74677;SDS011;67324;56.326;43.982;2023-04-25T07:17:07;8.80;;;2.83;;
74677;SDS011;67324;56.326;43.982;2023-04-25T07:19:34;10.13;;;3.70;;
74677;SDS011;67324;56.326;43.982;2023-04-25T07:22:01;7.68;;;3.17;;
74677;SDS011;67324;56.326;43.982;2023-04-25T07:24:27;8.20;;;3.28;;
74677;SDS011;67324;56.326;43.982;2023-04-25T07:26:55;8.85;;;3.75;;
74677;SDS011;67324;56.326;43.982;2023-04-25T07:29:37;6.15;;;3.00;;
74677;SDS011;67324;56.326;43.982;2023-04-25T07:32:03;8.38;;;3.10;;
74677;SDS011;67324;56.326;43.982;2023-04-25T07:34:29;5.53;;;3.47;;
74677;SDS011;67324;56.326;43.982;2023-04-25T07:36:56;6.45;;;3.53;;
74677;SDS011;67324;56.326;43.982;2023-04-25T07:39:25;7.50;;;3.13;;
74677;SDS011;67324;56.326;43.982;2023-04-25T07:41:51;8.88;;;3.63;;
74677;SDS011;67324;56.326;43.982;2023-04-25T07:44:22;8.98;;;3.40;;
74677;SDS011;67324;56.326;43.982;2023-04-25T07:46:48;5.68;;;3.25;;
74677;SDS011;67324;56.326;43.982;2023-04-25T07:49:15;8.68;;;2.92;;
74677;SDS011;67324;56.326;43.982;2023-04-25T07:51:43;9.93;;;3.10;;
74677;SDS011;67324;56.326;43.982;2023-04-25T07:54:13;6.10;;;2.72;;
74677;SDS011;67324;56.326;43.982;2023-04-25T07:56:44;7.47;;;2.97;;
74677;SDS011;67324;56.326;43.982;2023-04-25T07:59:10;3.78;;;2.28;;
74677;SDS011;67324;56.326;43.982;2023-04-25T08:01:37;5.32;;;2.50;;
74677;SDS011;67324;56.326;43.982;2023-04-25T08:04:05;6.30;;;2.50;;
74677;SDS011;67324;56.326;43.982;2023-04-25T08:06:51;4.45;;;2.50;;
74677;SDS011;67324;56.326;43.982;2023-04-25T08:09:23;4.15;;;2.10;;
74677;SDS011;67324;56.326;43.982;2023-04-25T08:11:50;5.28;;;2.70;;
74677;SDS011;67324;56.326;43.982;2023-04-25T08:14:20;5.07;;;2.40;;
74677;SDS011;67324;56.326;43.982;2023-04-25T08:16:48;5.45;;;2.58;;
74677;SDS011;67324;56.326;43.982;2023-04-25T08:19:14;3.60;;;2.35;;
74677;SDS011;67324;56.326;43.982;2023-04-25T08:21:40;5.43;;;2.50;;
74677;SDS011;67324;56.326;43.982;2023-04-25T08:24:10;5.80;;;2.85;;
74677;SDS011;67324;56.326;43.982;2023-04-25T08:26:38;5.45;;;2.60;;
74677;SDS011;67324;56.326;43.982;2023-04-25T08:29:05;5.10;;;2.47;;
74677;SDS011;67324;56.326;43.982;2023-04-25T08:31:32;9.18;;;3.10;;
74677;SDS011;67324;56.326;43.982;2023-04-25T08:34:01;6.50;;;3.67;;
74677;SDS011;67324;56.326;43.982;2023-04-25T08:36:32;4.93;;;3.20;;
74677;SDS011;67324;56.326;43.982;2023-04-25T08:38:58;6.13;;;3.20;;
74677;SDS011;67324;56.326;43.982;2023-04-25T08:41:25;6.60;;;2.75;;
74677;SDS011;67324;56.326;43.982;2023-04-25T08:43:52;6.57;;;2.72;;
74677;SDS011;67324;56.326;43.982;2023-04-25T08:46:18;4.82;;;2.63;;
74677;SDS011;67324;56.326;43.982;2023-04-25T08:49:14;5.10;;;2.72;;
74677;SDS011;67324;56.326;43.982;2023-04-25T08:51:45;6.10;;;3.10;;
74677;SDS011;67324;56.326;43.982;2023-04-25T08:54:13;6.57;;;2.97;;
74677;SDS011;67324;56.326;43.982;2023-04-25T08:56:41;4.82;;;2.60;;
74677;SDS011;67324;56.326;43.982;2023-04-25T08:59:13;4.78;;;3.00;;
74677;SDS011;67324;56.326;43.982;2023-04-25T09:01:41;4.05;;;2.60;;
74677;SDS011;67324;56.326;43.982;2023-04-25T09:04:07;9.98;;;3.50;;
74677;SDS011;67324;56.326;43.982;2023-04-25T09:06:33;6.05;;;2.97;;
74677;SDS011;67324;56.326;43.982;2023-04-25T09:09:06;4.30;;;2.90;;
74677;SDS011;67324;56.326;43.982;2023-04-25T09:11:33;5.97;;;3.08;;
74677;SDS011;67324;56.326;43.982;2023-04-25T09:14:37;4.18;;;2.50;;
74677;SDS011;67324;56.326;43.982;2023-04-25T09:17:03;5.88;;;2.70;;
74677;SDS011;67324;56.326;43.982;2023-04-25T09:19:51;6.43;;;3.47;;
74677;SDS011;67324;56.326;43.982;2023-04-25T09:22:30;5.72;;;3.58;;
74677;SDS011;67324;56.326;43.982;2023-04-25T09:24:56;8.32;;;3.80;;
74677;SDS011;67324;56.326;43.982;2023-04-25T09:27:26;8.30;;;3.40;;
74677;SDS011;67324;56.326;43.982;2023-04-25T09:30:02;5.90;;;2.80;;
74677;SDS011;67324;56.326;43.982;2023-04-25T09:32:43;8.93;;;3.00;;
74677;SDS011;67324;56.326;43.982;2023-04-25T09:35:10;5.55;;;2.53;;
74677;SDS011;67324;56.326;43.982;2023-04-25T09:37:37;5.97;;;2.75;;
74677;SDS011;67324;56.326;43.982;2023-04-25T09:40:25;4.82;;;2.70;;
74677;SDS011;67324;56.326;43.982;2023-04-25T09:43:00;3.67;;;2.35;;
74677;SDS011;67324;56.326;43.982;2023-04-25T09:45:26;6.45;;;2.60;;
74677;SDS011;67324;56.326;43.982;2023-04-25T09:47:55;5.70;;;3.20;;
74677;SDS011;67324;56.326;43.982;2023-04-25T09:50:26;6.38;;;3.00;;
74677;SDS011;67324;56.326;43.982;2023-04-25T09:55:59;7.05;;;3.03;;
74677;SDS011;67324;56.326;43.982;2023-04-25T09:58:25;3.90;;;2.45;;
74677;SDS011;67324;56.326;43.982;2023-04-25T10:00:57;8.43;;;2.88;;
74677;SDS011;67324;56.326;43.982;2023-04-25T10:03:38;5.40;;;3.03;;
74677;SDS011;67324;56.326;43.982;2023-04-25T10:06:19;6.15;;;3.28;;
74677;SDS011;67324;56.326;43.982;2023-04-25T10:08:49;6.03;;;2.92;;
74677;SDS011;67324;56.326;43.982;2023-04-25T10:11:19;4.47;;;2.83;;
74677;SDS011;67324;56.326;43.982;2023-04-25T10:13:48;6.60;;;3.20;;
74677;SDS011;67324;56.326;43.982;2023-04-25T10:16:14;7.68;;;3.40;;
74677;SDS011;67324;56.326;43.982;2023-04-25T10:18:41;5.20;;;2.90;;
74677;SDS011;67324;56.326;43.982;2023-04-25T10:21:07;7.03;;;2.97;;
74677;SDS011;67324;56.326;43.982;2023-04-25T10:23:33;9.68;;;3.40;;
74677;SDS011;67324;56.326;43.982;2023-04-25T10:26:00;5.28;;;3.53;;
74677;SDS011;67324;56.326;43.982;2023-04-25T10:28:27;7.00;;;3.92;;
74677;SDS011;67324;56.326;43.982;2023-04-25T10:31:11;9.90;;;4.22;;
74677;SDS011;67324;56.326;43.982;2023-04-25T10:33:41;8.10;;;4.60;;
74677;SDS011;67324;56.326;43.982;2023-04-25T10:36:09;10.13;;;4.30;;
74677;SDS011;67324;56.326;43.982;2023-04-25T10:38:35;10.82;;;4.43;;
74677;SDS011;67324;56.326;43.982;2023-04-25T10:41:03;12.82;;;6.72;;
74677;SDS011;67324;56.326;43.982;2023-04-25T10:45:56;17.60;;;7.65;;
74677;SDS011;67324;56.326;43.982;2023-04-25T10:48:28;20.20;;;9.00;;
74677;SDS011;67324;56.326;43.982;2023-04-25T10:51:10;25.27;;;9.88;;
74677;SDS011;67324;56.326;43.982;2023-04-25T10:53:40;24.20;;;10.60;;
74677;SDS011;67324;56.326;43.982;2023-04-25T10:56:25;22.45;;;10.07;;
74677;SDS011;67324;56.326;43.982;2023-04-25T11:02:02;26.13;;;12.23;;
74677;SDS011;67324;56.326;43.982;2023-04-25T11:04:36;25.52;;;10.40;;
74677;SDS011;67324;56.326;43.982;2023-04-25T11:09:38;22.35;;;8.73;;
74677;SDS011;67324;56.326;43.982;2023-04-25T11:12:07;33.17;;;11.93;;
74677;SDS011;67324;56.326;43.982;2023-04-25T11:14:34;34.85;;;14.25;;
74677;SDS011;67324;56.326;43.982;2023-04-25T11:17:00;32.28;;;12.25;;
74677;SDS011;67324;56.326;43.982;2023-04-25T11:19:27;29.95;;;11.52;;
74677;SDS011;67324;56.326;43.982;2023-04-25T11:22:13;22.98;;;9.32;;
74677;SDS011;67324;56.326;43.982;2023-04-25T11:24:38;29.45;;;10.13;;
74677;SDS011;67324;56.326;43.982;2023-04-25T11:27:04;33.85;;;13.93;;
74677;SDS011;67324;56.326;43.982;2023-04-25T11:29:34;21.60;;;9.55;;
74677;SDS011;67324;56.326;43.982;2023-04-25T11:32:00;29.92;;;11.23;;
74677;SDS011;67324;56.326;43.982;2023-04-25T11:34:27;22.98;;;9.07;;
74677;SDS011;67324;56.326;43.982;2023-04-25T11:36:56;24.15;;;9.73;;
74677;SDS011;67324;56.326;43.982;2023-04-25T11:39:23;23.17;;;9.07;;
74677;SDS011;67324;56.326;43.982;2023-04-25T11:41:50;24.35;;;10.07;;
74677;SDS011;67324;56.326;43.982;2023-04-25T11:44:17;25.58;;;9.38;;
74677;SDS011;67324;56.326;43.982;2023-04-25T11:46:44;23.73;;;9.68;;
74677;SDS011;67324;56.326;43.982;2023-04-25T11:49:10;22.50;;;9.15;;
74677;SDS011;67324;56.326;43.982;2023-04-25T11:51:43;19.13;;;8.80;;
74677;SDS011;67324;56.326;43.982;2023-04-25T11:54:11;20.70;;;8.55;;
74677;SDS011;67324;56.326;43.982;2023-04-25T11:56:37;20.33;;;7.85;;
74677;SDS011;67324;56.326;43.982;2023-04-25T11:59:07;22.33;;;9.25;;
74677;SDS011;67324;56.326;43.982;2023-04-25T12:01:37;19.48;;;8.48;;
74677;SDS011;67324;56.326;43.982;2023-04-25T12:04:10;18.58;;;7.95;;
74677;SDS011;67324;56.326;43.982;2023-04-25T12:09:07;19.73;;;8.27;;
74677;SDS011;67324;56.326;43.982;2023-04-25T12:11:45;17.00;;;7.13;;
74677;SDS011;67324;56.326;43.982;2023-04-25T12:14:12;17.98;;;7.35;;
74677;SDS011;67324;56.326;43.982;2023-04-25T12:16:48;16.17;;;6.28;;
74677;SDS011;67324;56.326;43.982;2023-04-25T12:19:15;19.30;;;7.03;;
74677;SDS011;67324;56.326;43.982;2023-04-25T12:21:42;17.90;;;6.70;;
74677;SDS011;67324;56.326;43.982;2023-04-25T12:24:09;15.32;;;6.60;;
74677;SDS011;67324;56.326;43.982;2023-04-25T12:26:45;16.88;;;6.43;;
74677;SDS011;67324;56.326;43.982;2023-04-25T12:29:19;13.85;;;6.20;;
74677;SDS011;67324;56.326;43.982;2023-04-25T12:31:47;18.27;;;6.95;;
74677;SDS011;67324;56.326;43.982;2023-04-25T12:34:13;12.73;;;5.75;;
74677;SDS011;67324;56.326;43.982;2023-04-25T12:36:40;13.95;;;6.00;;
74677;SDS011;67324;56.326;43.982;2023-04-25T12:39:06;14.88;;;5.63;;
74677;SDS011;67324;56.326;43.982;2023-04-25T12:41:32;13.90;;;5.80;;
74677;SDS011;67324;56.326;43.982;2023-04-25T12:43:58;11.38;;;5.72;;
74677;SDS011;67324;56.326;43.982;2023-04-25T12:46:24;14.30;;;6.07;;
74677;SDS011;67324;56.326;43.982;2023-04-25T12:48:50;10.60;;;5.65;;
74677;SDS011;67324;56.326;43.982;2023-04-25T12:51:16;12.43;;;5.22;;
74677;SDS011;67324;56.326;43.982;2023-04-25T12:53:42;11.75;;;5.30;;
74677;SDS011;67324;56.326;43.982;2023-04-25T12:56:08;12.25;;;4.70;;
74677;SDS011;67324;56.326;43.982;2023-04-25T12:58:34;13.60;;;5.05;;
74677;SDS011;67324;56.326;43.982;2023-04-25T13:00:59;14.07;;;4.55;;
74677;SDS011;67324;56.326;43.982;2023-04-25T13:03:25;10.50;;;4.18;;
74677;SDS011;67324;56.326;43.982;2023-04-25T13:05:51;10.57;;;4.15;;
74677;SDS011;67324;56.326;43.982;2023-04-25T13:08:18;10.00;;;4.30;;
74677;SDS011;67324;56.326;43.982;2023-04-25T13:10:44;9.23;;;3.80;;
74677;SDS011;67324;56.326;43.982;2023-04-25T13:13:28;11.48;;;4.40;;
74677;SDS011;67324;56.326;43.982;2023-04-25T13:15:54;14.45;;;4.40;;
74677;SDS011;67324;56.326;43.982;2023-04-25T13:18:39;11.05;;;4.43;;
74677;SDS011;67324;56.326;43.982;2023-04-25T13:21:05;13.43;;;4.20;;
74677;SDS011;67324;56.326;43.982;2023-04-25T13:23:31;9.43;;;4.30;;
74677;SDS011;67324;56.326;43.982;2023-04-25T13:25:57;10.35;;;4.43;;
74677;SDS011;67324;56.326;43.982;2023-04-25T13:28:24;9.32;;;4.10;;
74677;SDS011;67324;56.326;43.982;2023-04-25T13:30:50;13.52;;;4.38;;
74677;SDS011;67324;56.326;43.982;2023-04-25T13:33:17;10.45;;;3.80;;
74677;SDS011;67324;56.326;43.982;2023-04-25T13:35:44;10.05;;;4.18;;
74677;SDS011;67324;56.326;43.982;2023-04-25T13:38:19;15.02;;;4.43;;
74677;SDS011;67324;56.326;43.982;2023-04-25T13:40:46;15.00;;;4.15;;
74677;SDS011;67324;56.326;43.982;2023-04-25T13:43:12;12.15;;;4.13;;
74677;SDS011;67324;56.326;43.982;2023-04-25T13:45:39;10.35;;;3.78;;
74677;SDS011;67324;56.326;43.982;2023-04-25T13:48:04;11.20;;;3.80;;
74677;SDS011;67324;56.326;43.982;2023-04-25T13:50:30;7.50;;;3.25;;
74677;SDS011;67324;56.326;43.982;2023-04-25T13:52:57;10.77;;;3.65;;
74677;SDS011;67324;56.326;43.982;2023-04-25T13:55:22;10.00;;;3.60;;
74677;SDS011;67324;56.326;43.982;2023-04-25T13:57:48;11.80;;;3.65;;
74677;SDS011;67324;56.326;43.982;2023-04-25T14:00:14;10.40;;;4.13;;
74677;SDS011;67324;56.326;43.982;2023-04-25T14:02:41;10.73;;;3.85;;
74677;SDS011;67324;56.326;43.982;2023-04-25T14:05:07;8.55;;;3.50;;
74677;SDS011;67324;56.326;43.982;2023-04-25T14:07:33;9.05;;;3.45;;
74677;SDS011;67324;56.326;43.982;2023-04-25T14:10:00;12.13;;;3.88;;
74677;SDS011;67324;56.326;43.982;2023-04-25T14:12:28;10.15;;;3.67;;
74677;SDS011;67324;56.326;43.982;2023-04-25T14:14:54;7.13;;;3.63;;
74677;SDS011;67324;56.326;43.982;2023-04-25T14:17:20;10.70;;;3.88;;
74677;SDS011;67324;56.326;43.982;2023-04-25T14:19:46;9.15;;;3.78;;
74677;SDS011;67324;56.326;43.982;2023-04-25T14:22:13;11.48;;;5.05;;
74677;SDS011;67324;56.326;43.982;2023-04-25T14:24:42;11.25;;;4.80;;
74677;SDS011;67324;56.326;43.982;2023-04-25T14:27:08;13.52;;;4.78;;
74677;SDS011;67324;56.326;43.982;2023-04-25T14:29:34;10.70;;;5.55;;
74677;SDS011;67324;56.326;43.982;2023-04-25T14:32:00;11.65;;;6.18;;
74677;SDS011;67324;56.326;43.982;2023-04-25T14:34:27;12.48;;;7.00;;
74677;SDS011;67324;56.326;43.982;2023-04-25T14:36:53;17.52;;;8.13;;
74677;SDS011;67324;56.326;43.982;2023-04-25T14:39:19;13.77;;;7.15;;
74677;SDS011;67324;56.326;43.982;2023-04-25T14:41:45;13.18;;;8.13;;
74677;SDS011;67324;56.326;43.982;2023-04-25T14:44:11;13.85;;;7.88;;
74677;SDS011;67324;56.326;43.982;2023-04-25T14:46:37;15.02;;;8.65;;
74677;SDS011;67324;56.326;43.982;2023-04-25T14:49:03;13.85;;;8.85;;
74677;SDS011;67324;56.326;43.982;2023-04-25T14:51:29;17.00;;;8.93;;
74677;SDS011;67324;56.326;43.982;2023-04-25T14:53:56;13.82;;;8.75;;
74677;SDS011;67324;56.326;43.982;2023-04-25T14:56:22;13.93;;;8.95;;
74677;SDS011;67324;56.326;43.982;2023-04-25T14:58:48;14.77;;;9.00;;
74677;SDS011;67324;56.326;43.982;2023-04-25T15:01:14;14.95;;;9.10;;
74677;SDS011;67324;56.326;43.982;2023-04-25T15:03:40;15.73;;;9.65;;
74677;SDS011;67324;56.326;43.982;2023-04-25T15:06:06;16.95;;;9.80;;
74677;SDS011;67324;56.326;43.982;2023-04-25T15:08:32;16.98;;;10.10;;
74677;SDS011;67324;56.326;43.982;2023-04-25T15:10:58;18.65;;;9.65;;
74677;SDS011;67324;56.326;43.982;2023-04-25T15:13:24;17.20;;;9.90;;